Time;durP1;ratioP1;P1;durP2;ratioP2;P2;SDS_P1;SDS_P2;PMS_P1;PMS_P2;Temp;Humidity;BMP_temperature;BMP_pressure;BME280_temperature;BME280_humidity;BME280_pressure;Samples;Min_cycle;Max_cycle;Signal;HPM_P1;HPM_P2
2023/04/30 00:02:17;;;;;;;15.77;10.00;;;;;;;;;;5155080;27;20029;-79
2023/04/30 00:04:43;;;;;;;15.20;9.85;;;;;;;;;;5154703;27;20473;-80
2023/04/30 00:07:08;;;;;;;15.18;10.05;;;;;;;;;;5153946;27;20030;-80
2023/04/30 00:09:34;;;;;;;14.88;9.57;;;;;;;;;;5155662;27;20481;-80
2023/04/30 00:12:00;;;;;;;17.35;10.48;;;;;;;;;;5154313;27;20075;-80
2023/04/30 00:14:25;;;;;;;19.08;10.23;;;;;;;;;;5154417;27;20010;-79
2023/04/30 00:16:51;;;;;;;15.27;10.20;;;;;;;;;;5155065;27;20126;-80
2023/04/30 00:19:16;;;;;;;14.48;9.30;;;;;;;;;;5155284;27;20019;-79
2023/04/30 00:21:42;;;;;;;12.90;9.50;;;;;;;;;;5155709;27;20023;-80
2023/04/30 00:24:07;;;;;;;19.65;11.02;;;;;;;;;;5154295;27;20484;-79
2023/04/30 00:26:33;;;;;;;14.98;9.15;;;;;;;;;;5153788;27;20079;-79
2023/04/30 00:28:58;;;;;;;17.73;10.18;;;;;;;;;;5153808;27;20023;-81
2023/04/30 00:31:24;;;;;;;15.40;9.73;;;;;;;;;;5155101;27;20497;-79
2023/04/30 00:33:49;;;;;;;15.63;9.52;;;;;;;;;;5154070;27;20105;-81
2023/04/30 00:36:16;;;;;;;15.38;9.90;;;;;;;;;;5153923;27;20023;-80
2023/04/30 00:38:42;;;;;;;18.30;9.60;;;;;;;;;;5153852;27;20117;-80
2023/04/30 00:41:07;;;;;;;15.05;9.95;;;;;;;;;;5155175;27;20147;-80
2023/04/30 00:43:33;;;;;;;12.90;9.68;;;;;;;;;;5154994;27;20432;-80
2023/04/30 00:45:58;;;;;;;14.05;10.25;;;;;;;;;;5154447;27;20466;-80
2023/04/30 00:48:25;;;;;;;12.98;9.43;;;;;;;;;;5154482;27;20080;-80
2023/04/30 00:50:51;;;;;;;14.27;9.77;;;;;;;;;;5154189;27;20377;-81
2023/04/30 00:53:16;;;;;;;17.73;10.85;;;;;;;;;;5154160;27;20093;-81
2023/04/30 00:55:43;;;;;;;15.80;10.18;;;;;;;;;;5154003;27;20391;-79
2023/04/30 00:58:08;;;;;;;17.67;9.85;;;;;;;;;;5152789;27;20071;-79
2023/04/30 01:00:34;;;;;;;14.63;10.80;;;;;;;;;;5153835;27;20031;-80
2023/04/30 01:03:00;;;;;;;13.35;10.07;;;;;;;;;;5154109;27;20025;-79
2023/04/30 01:05:25;;;;;;;15.32;9.70;;;;;;;;;;5154059;27;20030;-80
2023/04/30 01:07:52;;;;;;;16.35;10.20;;;;;;;;;;5153571;27;20488;-78
2023/04/30 01:10:18;;;;;;;14.35;9.93;;;;;;;;;;5153811;27;20033;-81
2023/04/30 01:13:08;;;;;;;13.80;9.68;;;;;;;;;;5152068;27;20117;-79
2023/04/30 01:15:37;;;;;;;15.30;10.82;;;;;;;;;;5152139;27;20018;-80
2023/04/30 01:18:13;;;;;;;15.25;10.43;;;;;;;;;;5152691;27;20474;-80
2023/04/30 01:20:44;;;;;;;20.98;10.35;;;;;;;;;;5152318;27;20427;-81
2023/04/30 01:23:09;;;;;;;14.50;11.35;;;;;;;;;;5153924;27;20110;-80
2023/04/30 01:26:22;;;;;;;15.13;10.27;;;;;;;;;;5152515;27;20549;-78
2023/04/30 01:28:49;;;;;;;;;;;;;;;;;;5089930;28;20073;-80
2023/04/30 01:31:17;;;;;;;19.50;10.98;;;;;;;;;;5090124;28;20001;-80
2023/04/30 01:33:43;;;;;;;16.45;10.48;;;;;;;;;;5121175;27;20034;-80
2023/04/30 01:36:53;;;;;;;16.10;10.20;;;;;;;;;;5152396;27;20026;-80
2023/04/30 01:39:28;;;;;;;19.55;12.18;;;;;;;;;;5089886;28;20062;-80
2023/04/30 01:42:15;;;;;;;14.65;10.40;;;;;;;;;;5140349;27;20108;-79
2023/04/30 01:44:49;;;;;;;15.57;11.23;;;;;;;;;;5152315;27;20046;-79
2023/04/30 01:47:59;;;;;;;20.13;10.60;;;;;;;;;;5153994;27;20070;-80
2023/04/30 01:50:43;;;;;;;15.07;11.20;;;;;;;;;;5151368;27;20042;-78
2023/04/30 01:53:15;;;;;;;17.02;11.10;;;;;;;;;;5152938;27;20044;-81
2023/04/30 01:55:54;;;;;;;16.98;11.10;;;;;;;;;;5152775;27;20058;-79
2023/04/30 01:58:22;;;;;;;14.70;10.55;;;;;;;;;;5152138;27;20079;-80
2023/04/30 02:00:48;;;;;;;17.85;11.70;;;;;;;;;;5151732;27;20027;-80
2023/04/30 02:03:13;;;;;;;21.17;12.32;;;;;;;;;;5153177;27;20037;-80
2023/04/30 02:05:39;;;;;;;16.77;10.85;;;;;;;;;;5153704;27;20030;-80
2023/04/30 02:08:05;;;;;;;16.42;11.77;;;;;;;;;;5151923;27;20026;-80
2023/04/30 02:10:30;;;;;;;20.00;12.13;;;;;;;;;;5152234;27;20026;-81
2023/04/30 02:12:56;;;;;;;18.73;11.98;;;;;;;;;;5153401;27;20550;-80
2023/04/30 02:15:22;;;;;;;18.38;11.82;;;;;;;;;;5152474;27;20374;-79
2023/04/30 02:17:47;;;;;;;18.52;12.35;;;;;;;;;;5152232;27;20061;-80
2023/04/30 02:20:13;;;;;;;18.67;12.55;;;;;;;;;;5152261;27;20489;-80
2023/04/30 02:22:38;;;;;;;19.35;12.60;;;;;;;;;;5152227;27;20023;-80
2023/04/30 02:25:04;;;;;;;17.48;11.35;;;;;;;;;;5153551;27;20535;-80
2023/04/30 02:27:32;;;;;;;19.40;12.70;;;;;;;;;;5152978;27;20050;-80
2023/04/30 02:29:58;;;;;;;20.52;12.13;;;;;;;;;;5153176;27;20461;-80
2023/04/30 02:32:24;;;;;;;20.98;12.48;;;;;;;;;;5152167;27;20099;-80
2023/04/30 02:34:49;;;;;;;21.00;12.65;;;;;;;;;;5152059;27;20019;-80
2023/04/30 02:37:15;;;;;;;19.45;12.95;;;;;;;;;;5153709;27;20026;-81
2023/04/30 02:39:40;;;;;;;22.23;12.43;;;;;;;;;;5153509;27;20065;-81
2023/04/30 02:42:06;;;;;;;25.70;13.35;;;;;;;;;;5151981;27;20500;-81
2023/04/30 02:44:34;;;;;;;21.08;12.95;;;;;;;;;;5151237;27;20035;-78
2023/04/30 02:47:00;;;;;;;21.08;12.60;;;;;;;;;;5154289;27;20039;-81
2023/04/30 02:49:25;;;;;;;18.40;11.05;;;;;;;;;;5156755;27;20066;-75
2023/04/30 02:51:52;;;;;;;16.75;12.23;;;;;;;;;;5156311;27;20065;-78
2023/04/30 02:54:18;;;;;;;20.35;13.23;;;;;;;;;;5137555;27;20027;-79
2023/04/30 02:56:45;;;;;;;21.38;11.30;;;;;;;;;;5156543;27;20441;-80
2023/04/30 02:59:10;;;;;;;20.35;12.23;;;;;;;;;;5155177;27;20039;-80
2023/04/30 03:01:36;;;;;;;17.83;11.35;;;;;;;;;;5155902;27;20476;-80
2023/04/30 03:04:03;;;;;;;17.17;12.13;;;;;;;;;;5155952;27;20034;-80
2023/04/30 03:06:32;;;;;;;15.38;11.75;;;;;;;;;;5154896;27;20442;-80
2023/04/30 03:08:58;;;;;;;16.90;11.55;;;;;;;;;;5154079;27;20143;-80
2023/04/30 03:11:24;;;;;;;16.17;12.02;;;;;;;;;;5148429;27;20019;-79
2023/04/30 03:13:50;;;;;;;19.02;12.05;;;;;;;;;;5134017;27;20023;-81
2023/04/30 03:16:17;;;;;;;18.42;11.93;;;;;;;;;;5131683;27;20019;-82
2023/04/30 03:18:42;;;;;;;18.38;11.68;;;;;;;;;;5113636;28;20499;-80
2023/04/30 03:21:08;;;;;;;16.60;12.85;;;;;;;;;;5114627;28;20110;-80
2023/04/30 03:23:34;;;;;;;17.70;11.60;;;;;;;;;;5115143;28;20031;-80
2023/04/30 03:26:00;;;;;;;16.65;11.15;;;;;;;;;;5114609;28;20162;-80
2023/04/30 03:28:25;;;;;;;15.98;10.60;;;;;;;;;;5114465;28;20031;-80
2023/04/30 03:30:51;;;;;;;18.00;11.30;;;;;;;;;;5113343;28;20032;-79
2023/04/30 03:33:17;;;;;;;18.10;10.73;;;;;;;;;;5114413;28;20054;-79
2023/04/30 03:35:42;;;;;;;14.75;10.85;;;;;;;;;;5112998;28;20393;-80
2023/04/30 03:38:08;;;;;;;17.30;10.50;;;;;;;;;;5114227;28;20031;-78
2023/04/30 03:40:33;;;;;;;18.95;11.02;;;;;;;;;;5113399;28;20383;-78
2023/04/30 03:42:59;;;;;;;18.45;11.02;;;;;;;;;;5112802;28;20043;-79
2023/04/30 03:45:24;;;;;;;16.67;11.40;;;;;;;;;;5114300;28;20031;-79
2023/04/30 03:47:51;;;;;;;19.70;11.02;;;;;;;;;;5113765;28;20027;-79
2023/04/30 03:50:17;;;;;;;25.88;11.85;;;;;;;;;;5113701;28;20324;-79
2023/04/30 03:52:43;;;;;;;19.58;11.32;;;;;;;;;;5113213;28;20047;-80
2023/04/30 03:55:09;;;;;;;20.27;11.85;;;;;;;;;;5113583;28;20367;-79
2023/04/30 03:57:35;;;;;;;17.63;11.25;;;;;;;;;;5113624;28;20441;-79
2023/04/30 04:00:02;;;;;;;14.95;11.25;;;;;;;;;;5114279;28;20093;-79
2023/04/30 04:02:30;;;;;;;16.73;10.40;;;;;;;;;;5114212;28;20483;-79
2023/04/30 04:04:56;;;;;;;18.17;11.32;;;;;;;;;;5114265;28;20526;-79
2023/04/30 04:07:21;;;;;;;14.27;10.85;;;;;;;;;;5113999;28;20111;-78
2023/04/30 04:09:47;;;;;;;16.17;10.38;;;;;;;;;;5113813;28;20070;-79
2023/04/30 04:12:13;;;;;;;17.85;10.45;;;;;;;;;;5114774;28;20035;-79
2023/04/30 04:14:38;;;;;;;16.77;11.25;;;;;;;;;;5114607;28;20023;-79
2023/04/30 04:17:04;;;;;;;17.70;10.98;;;;;;;;;;5112544;28;20035;-79
2023/04/30 04:19:30;;;;;;;21.80;10.90;;;;;;;;;;5114756;28;20027;-79
2023/04/30 04:21:56;;;;;;;16.88;9.75;;;;;;;;;;5112367;28;20028;-79
2023/04/30 04:24:24;;;;;;;18.45;9.80;;;;;;;;;;5112487;28;20619;-80
2023/04/30 04:26:49;;;;;;;14.50;9.40;;;;;;;;;;5113682;28;20485;-78
2023/04/30 04:29:15;;;;;;;18.60;10.45;;;;;;;;;;5114725;28;20023;-80
2023/04/30 04:31:41;;;;;;;16.58;10.40;;;;;;;;;;5114748;28;20024;-79
2023/04/30 04:34:07;;;;;;;20.83;9.77;;;;;;;;;;5114382;28;20023;-80
2023/04/30 04:36:33;;;;;;;17.25;9.73;;;;;;;;;;5113978;28;20032;-80
2023/04/30 04:39:02;;;;;;;15.13;9.63;;;;;;;;;;5111728;28;20058;-79
2023/04/30 04:41:31;;;;;;;17.83;10.48;;;;;;;;;;5112322;28;20027;-79
2023/04/30 04:43:57;;;;;;;16.90;10.25;;;;;;;;;;5112819;28;20401;-79
2023/04/30 04:46:24;;;;;;;16.85;8.93;;;;;;;;;;5111907;28;20031;-80
2023/04/30 04:48:50;;;;;;;14.68;9.35;;;;;;;;;;5114099;28;20027;-80
2023/04/30 04:51:15;;;;;;;14.73;8.75;;;;;;;;;;5114762;28;20035;-79
2023/04/30 04:53:41;;;;;;;14.52;9.27;;;;;;;;;;5112856;28;20024;-80
2023/04/30 04:56:07;;;;;;;15.80;9.73;;;;;;;;;;5112571;28;20032;-80
2023/04/30 04:58:33;;;;;;;14.85;9.88;;;;;;;;;;5113573;28;20059;-79
2023/04/30 05:00:59;;;;;;;14.60;9.63;;;;;;;;;;5113539;28;20028;-79
2023/04/30 05:03:26;;;;;;;13.15;8.88;;;;;;;;;;5112827;28;20059;-80
2023/04/30 05:05:52;;;;;;;14.40;9.35;;;;;;;;;;5112999;28;20102;-79
2023/04/30 05:08:17;;;;;;;13.02;9.23;;;;;;;;;;5112034;28;20058;-79
2023/04/30 05:10:43;;;;;;;14.43;8.48;;;;;;;;;;5111532;28;20055;-81
2023/04/30 05:13:08;;;;;;;17.75;8.80;;;;;;;;;;5111738;28;20031;-79
2023/04/30 05:15:34;;;;;;;12.32;8.05;;;;;;;;;;5111646;28;20109;-80
2023/04/30 05:17:59;;;;;;;12.60;8.40;;;;;;;;;;5111470;28;20024;-81
2023/04/30 05:20:25;;;;;;;18.73;9.90;;;;;;;;;;5112578;28;20106;-79
2023/04/30 05:22:51;;;;;;;12.80;9.45;;;;;;;;;;5111234;28;20080;-80
2023/04/30 05:25:17;;;;;;;21.13;9.80;;;;;;;;;;5111162;28;20051;-79
2023/04/30 05:27:42;;;;;;;14.35;9.32;;;;;;;;;;5112439;28;20034;-78
2023/04/30 05:30:08;;;;;;;12.82;8.57;;;;;;;;;;5111330;28;20440;-80
2023/04/30 05:32:34;;;;;;;13.57;8.27;;;;;;;;;;5111251;28;20040;-79
2023/04/30 05:35:00;;;;;;;15.35;9.40;;;;;;;;;;5111440;28;20031;-79
2023/04/30 05:37:26;;;;;;;15.35;9.45;;;;;;;;;;5110758;28;20024;-78
2023/04/30 05:39:54;;;;;;;13.60;8.75;;;;;;;;;;5111467;28;20031;-79
2023/04/30 05:42:20;;;;;;;12.35;8.35;;;;;;;;;;5111626;28;20027;-80
2023/04/30 05:44:48;;;;;;;12.05;8.88;;;;;;;;;;5111437;28;20130;-79
2023/04/30 05:47:14;;;;;;;13.75;8.90;;;;;;;;;;5113376;28;20032;-80
2023/04/30 05:49:39;;;;;;;13.93;9.05;;;;;;;;;;5112355;28;20410;-78
2023/04/30 05:52:05;;;;;;;15.00;9.48;;;;;;;;;;5112865;28;20027;-79
2023/04/30 05:54:31;;;;;;;15.35;8.95;;;;;;;;;;5112494;28;20019;-80
2023/04/30 05:56:56;;;;;;;15.90;8.65;;;;;;;;;;5112395;28;20463;-80
2023/04/30 05:59:22;;;;;;;12.10;8.73;;;;;;;;;;5112581;28;20023;-80
2023/04/30 06:01:48;;;;;;;16.20;9.10;;;;;;;;;;5113607;28;20035;-79
2023/04/30 06:04:13;;;;;;;14.73;9.18;;;;;;;;;;5114470;28;20035;-79
2023/04/30 06:06:39;;;;;;;17.55;9.25;;;;;;;;;;5113736;28;20055;-80
2023/04/30 06:09:05;;;;;;;13.40;9.23;;;;;;;;;;5113923;28;20080;-81
2023/04/30 06:11:30;;;;;;;16.67;9.50;;;;;;;;;;5112781;28;20036;-80
2023/04/30 06:13:57;;;;;;;14.80;9.60;;;;;;;;;;5114115;28;20023;-80
2023/04/30 06:16:23;;;;;;;14.18;9.13;;;;;;;;;;5112539;28;20055;-79
2023/04/30 06:18:48;;;;;;;15.82;9.45;;;;;;;;;;5096166;28;20039;-80
2023/04/30 06:21:14;;;;;;;14.18;9.45;;;;;;;;;;5114790;28;20050;-78
2023/04/30 06:23:40;;;;;;;14.40;9.30;;;;;;;;;;5118634;28;20034;-79
2023/04/30 06:26:05;;;;;;;13.07;9.32;;;;;;;;;;5117118;28;20423;-80
2023/04/30 06:28:31;;;;;;;14.77;9.82;;;;;;;;;;5116980;28;20026;-80
2023/04/30 06:30:57;;;;;;;12.82;9.40;;;;;;;;;;5118326;28;20046;-79
2023/04/30 06:33:22;;;;;;;16.77;10.38;;;;;;;;;;5116668;28;20027;-80
2023/04/30 06:35:49;;;;;;;14.40;9.60;;;;;;;;;;5118515;28;20043;-80
2023/04/30 06:38:17;;;;;;;16.45;10.07;;;;;;;;;;5117728;28;20023;-80
2023/04/30 06:40:42;;;;;;;19.40;9.85;;;;;;;;;;5116140;28;20114;-80
2023/04/30 06:43:08;;;;;;;14.77;9.65;;;;;;;;;;5116463;28;20078;-80
2023/04/30 06:45:34;;;;;;;15.77;9.90;;;;;;;;;;5116472;28;20025;-78
2023/04/30 06:48:00;;;;;;;16.88;11.18;;;;;;;;;;5117090;28;20059;-79
2023/04/30 06:50:26;;;;;;;18.88;9.70;;;;;;;;;;5117379;28;20027;-79
2023/04/30 06:52:51;;;;;;;15.07;9.93;;;;;;;;;;5117680;28;20069;-79
2023/04/30 06:55:17;;;;;;;14.15;10.20;;;;;;;;;;5116282;28;20031;-80
2023/04/30 06:57:42;;;;;;;14.85;9.90;;;;;;;;;;5115905;28;20024;-79
2023/04/30 07:00:09;;;;;;;18.67;9.57;;;;;;;;;;5116379;28;20027;-79
2023/04/30 07:02:34;;;;;;;16.88;10.13;;;;;;;;;;5115826;28;20076;-80
2023/04/30 07:05:00;;;;;;;16.52;9.27;;;;;;;;;;5116078;28;20075;-80
2023/04/30 07:07:26;;;;;;;11.27;9.18;;;;;;;;;;5116455;28;20034;-80
2023/04/30 07:09:52;;;;;;;14.88;9.63;;;;;;;;;;5115607;28;20529;-78
2023/04/30 07:12:18;;;;;;;13.57;10.30;;;;;;;;;;5117329;28;20072;-79
2023/04/30 07:14:43;;;;;;;13.93;10.20;;;;;;;;;;5116943;28;20485;-79
2023/04/30 07:17:10;;;;;;;20.50;10.25;;;;;;;;;;5116970;28;20110;-79
2023/04/30 07:19:36;;;;;;;15.00;10.57;;;;;;;;;;5118037;28;20466;-79
2023/04/30 07:22:01;;;;;;;16.83;9.77;;;;;;;;;;5116269;28;20088;-79
2023/04/30 07:24:27;;;;;;;14.95;9.23;;;;;;;;;;5116441;28;20051;-79
2023/04/30 07:26:53;;;;;;;13.88;9.85;;;;;;;;;;5117305;27;20390;-78
2023/04/30 07:29:18;;;;;;;14.07;9.57;;;;;;;;;;5117252;28;20047;-82
2023/04/30 07:31:44;;;;;;;13.80;9.30;;;;;;;;;;5117515;28;20472;-79
2023/04/30 07:34:10;;;;;;;14.85;9.90;;;;;;;;;;5115572;28;20047;-79
2023/04/30 07:36:37;;;;;;;10.77;8.63;;;;;;;;;;5115839;28;20030;-79
2023/04/30 07:39:04;;;;;;;13.02;9.30;;;;;;;;;;5116367;28;20024;-79
2023/04/30 07:41:29;;;;;;;14.48;9.10;;;;;;;;;;5118155;28;20041;-79
2023/04/30 07:43:55;;;;;;;15.95;9.35;;;;;;;;;;5115826;28;20044;-79
2023/04/30 07:46:22;;;;;;;14.60;9.52;;;;;;;;;;5115886;28;20387;-79
2023/04/30 07:48:48;;;;;;;14.25;9.57;;;;;;;;;;5117090;27;20027;-80
2023/04/30 07:51:13;;;;;;;13.90;10.07;;;;;;;;;;5117439;28;20050;-80
2023/04/30 07:53:39;;;;;;;16.52;9.82;;;;;;;;;;5119222;28;20075;-79
2023/04/30 07:56:04;;;;;;;14.43;10.27;;;;;;;;;;5117246;28;20024;-79
2023/04/30 07:58:37;;;;;;;13.48;9.60;;;;;;;;;;5119948;28;20042;-79
2023/04/30 08:01:02;;;;;;;11.88;9.32;;;;;;;;;;5118272;27;20462;-80
2023/04/30 08:03:28;;;;;;;13.43;9.32;;;;;;;;;;5115180;28;20027;-81
2023/04/30 08:05:54;;;;;;;11.65;9.43;;;;;;;;;;5115559;28;20027;-80
2023/04/30 08:08:19;;;;;;;13.60;8.90;;;;;;;;;;5116029;28;20035;-80
2023/04/30 08:10:45;;;;;;;12.45;8.23;;;;;;;;;;5117213;28;20382;-78
2023/04/30 08:13:10;;;;;;;10.40;8.30;;;;;;;;;;5116966;28;20046;-80
2023/04/30 08:15:37;;;;;;;12.95;8.45;;;;;;;;;;5116854;28;20043;-79
2023/04/30 08:18:04;;;;;;;13.68;7.93;;;;;;;;;;5117751;28;20024;-80
2023/04/30 08:20:31;;;;;;;11.48;8.45;;;;;;;;;;5117370;28;20019;-80
2023/04/30 08:22:58;;;;;;;16.23;8.02;;;;;;;;;;5116264;28;20020;-80
2023/04/30 08:25:23;;;;;;;11.85;8.27;;;;;;;;;;5117485;28;20110;-79
2023/04/30 08:27:49;;;;;;;13.18;8.27;;;;;;;;;;5118815;28;20027;-78
2023/04/30 08:30:15;;;;;;;11.10;8.65;;;;;;;;;;5118850;28;20031;-80
2023/04/30 08:32:40;;;;;;;12.35;8.70;;;;;;;;;;5117987;28;20027;-80
2023/04/30 08:35:06;;;;;;;9.90;8.18;;;;;;;;;;5117576;28;20043;-79
2023/04/30 08:37:35;;;;;;;11.13;8.55;;;;;;;;;;5116952;28;20122;-82
2023/04/30 08:40:02;;;;;;;11.27;8.98;;;;;;;;;;5117684;28;20102;-80
2023/04/30 08:42:35;;;;;;;13.13;9.85;;;;;;;;;;5116224;28;20135;-80
2023/04/30 08:45:02;;;;;;;12.35;9.52;;;;;;;;;;5114283;28;20486;-80
2023/04/30 08:47:29;;;;;;;11.18;8.88;;;;;;;;;;5114824;28;20028;-79
2023/04/30 08:49:54;;;;;;;9.27;8.25;;;;;;;;;;5114806;28;20180;-80
2023/04/30 08:52:20;;;;;;;9.73;7.28;;;;;;;;;;5118258;28;20043;-81
2023/04/30 08:54:47;;;;;;;12.80;7.70;;;;;;;;;;5115107;28;20075;-81
2023/04/30 08:57:13;;;;;;;8.50;6.70;;;;;;;;;;5117562;28;20023;-80
2023/04/30 08:59:39;;;;;;;8.93;6.60;;;;;;;;;;5116152;28;20444;-80
2023/04/30 09:02:05;;;;;;;12.35;7.45;;;;;;;;;;5117939;28;20034;-79
2023/04/30 09:04:30;;;;;;;10.60;7.57;;;;;;;;;;5114691;28;20107;-80
2023/04/30 09:06:59;;;;;;;10.52;8.35;;;;;;;;;;5114255;28;20020;-80
2023/04/30 09:09:32;;;;;;;12.40;7.38;;;;;;;;;;5114468;28;20072;-84
2023/04/30 09:12:16;;;;;;;9.00;6.50;;;;;;;;;;5113864;28;20051;-79
2023/04/30 09:15:07;;;;;;;10.98;7.13;;;;;;;;;;5113451;28;20101;-79
2023/04/30 09:17:33;;;;;;;10.23;7.07;;;;;;;;;;5100600;28;20042;-81
2023/04/30 09:20:07;;;;;;;6.65;5.93;;;;;;;;;;5117025;28;20296;-82
2023/04/30 09:22:34;;;;;;;7.32;5.85;;;;;;;;;;5116433;28;20371;-80
2023/04/30 09:25:00;;;;;;;9.32;6.32;;;;;;;;;;5115927;28;20056;-79
2023/04/30 09:27:26;;;;;;;9.60;6.32;;;;;;;;;;5114170;28;20031;-79
2023/04/30 09:29:51;;;;;;;7.07;6.38;;;;;;;;;;5114072;28;20095;-79
2023/04/30 09:32:18;;;;;;;7.32;6.30;;;;;;;;;;5119093;28;20042;-80
2023/04/30 09:34:44;;;;;;;8.18;6.63;;;;;;;;;;5116338;28;20084;-80
2023/04/30 09:37:16;;;;;;;10.05;6.68;;;;;;;;;;5122148;28;20023;-82
2023/04/30 09:39:58;;;;;;;15.45;7.13;;;;;;;;;;5118543;28;20466;-81
2023/04/30 09:42:44;;;;;;;10.70;6.95;;;;;;;;;;5126864;28;20083;-81
2023/04/30 09:45:10;;;;;;;8.18;6.03;;;;;;;;;;5116489;28;20032;-81
2023/04/30 09:47:38;;;;;;;9.13;6.03;;;;;;;;;;5114039;28;20111;-81
2023/04/30 09:50:04;;;;;;;9.80;6.70;;;;;;;;;;5114122;28;20024;-80
2023/04/30 09:52:30;;;;;;;8.45;6.00;;;;;;;;;;5113382;28;20612;-81
2023/04/30 09:54:56;;;;;;;9.52;5.50;;;;;;;;;;5113271;28;20027;-81
2023/04/30 09:57:23;;;;;;;6.45;5.32;;;;;;;;;;5116574;28;20028;-79
2023/04/30 09:59:51;;;;;;;11.55;6.15;;;;;;;;;;5114192;28;20016;-80
2023/04/30 10:02:18;;;;;;;8.85;5.53;;;;;;;;;;5113628;28;20394;-81
2023/04/30 10:04:52;;;;;;;8.27;5.70;;;;;;;;;;5113652;28;20399;-80
2023/04/30 10:07:20;;;;;;;8.38;6.47;;;;;;;;;;5113811;28;20024;-80
2023/04/30 10:09:54;;;;;;;9.35;5.65;;;;;;;;;;5116323;28;20051;-82
2023/04/30 10:12:25;;;;;;;10.18;5.55;;;;;;;;;;5113948;28;20489;-78
2023/04/30 10:14:54;;;;;;;8.25;5.68;;;;;;;;;;5113311;28;20442;-80
2023/04/30 10:17:25;;;;;;;8.20;4.75;;;;;;;;;;5113625;28;20019;-79
2023/04/30 10:19:54;;;;;;;11.63;5.30;;;;;;;;;;5112730;28;20120;-80
2023/04/30 10:22:20;;;;;;;14.68;7.57;;;;;;;;;;5113864;28;20123;-80
2023/04/30 10:24:47;;;;;;;9.13;6.15;;;;;;;;;;5112401;28;20106;-79
2023/04/30 10:27:13;;;;;;;9.10;7.13;;;;;;;;;;5113430;28;20031;-79
2023/04/30 10:29:39;;;;;;;9.98;5.70;;;;;;;;;;5114064;28;20027;-82
2023/04/30 10:32:06;;;;;;;7.75;4.78;;;;;;;;;;5114718;28;20088;-79
2023/04/30 10:35:07;;;;;;;7.78;4.97;;;;;;;;;;5114491;28;20020;-80
2023/04/30 10:37:42;;;;;;;12.37;5.37;;;;;;;;;;5115721;28;20038;-78
2023/04/30 10:40:08;;;;;;;11.40;6.13;;;;;;;;;;5112569;28;20264;-80
2023/04/30 10:42:35;;;;;;;6.97;5.70;;;;;;;;;;5112469;28;20051;-80
2023/04/30 10:45:02;;;;;;;7.97;5.45;;;;;;;;;;5113946;28;20031;-79
2023/04/30 10:47:29;;;;;;;9.63;6.00;;;;;;;;;;5114520;28;20038;-81
2023/04/30 10:50:03;;;;;;;8.88;5.63;;;;;;;;;;5112261;28;20034;-81
2023/04/30 10:52:29;;;;;;;12.77;7.03;;;;;;;;;;5112976;28;20038;-78
2023/04/30 10:54:54;;;;;;;10.77;6.80;;;;;;;;;;5112665;28;20172;-80
2023/04/30 10:57:29;;;;;;;8.75;6.28;;;;;;;;;;5113158;28;20055;-82
2023/04/30 11:00:07;;;;;;;11.57;6.82;;;;;;;;;;5097859;28;20028;-80
2023/04/30 11:02:47;;;;;;;10.00;6.50;;;;;;;;;;5113611;28;20035;-81
2023/04/30 11:05:14;;;;;;;11.95;7.00;;;;;;;;;;5114418;28;20024;-79
2023/04/30 11:07:55;;;;;;;12.98;7.13;;;;;;;;;;5114238;28;20027;-80
2023/04/30 11:10:22;;;;;;;7.57;6.15;;;;;;;;;;5118525;28;20058;-79
2023/04/30 11:12:50;;;;;;;12.80;5.80;;;;;;;;;;5117384;28;20036;-78
2023/04/30 11:15:18;;;;;;;10.80;6.10;;;;;;;;;;5117352;28;20007;-80
2023/04/30 11:17:45;;;;;;;11.70;6.65;;;;;;;;;;5117220;28;20463;-81
2023/04/30 11:20:23;;;;;;;7.90;6.15;;;;;;;;;;5116066;28;20478;-79
2023/04/30 11:23:11;;;;;;;10.63;7.05;;;;;;;;;;5115944;28;20375;-79
2023/04/30 11:25:45;;;;;;;11.80;7.03;;;;;;;;;;5117442;28;20024;-79
2023/04/30 11:28:19;;;;;;;11.77;7.30;;;;;;;;;;5116981;28;20366;-78
2023/04/30 11:30:52;;;;;;;11.65;6.32;;;;;;;;;;5115527;28;20470;-78
2023/04/30 11:33:18;;;;;;;13.77;8.00;;;;;;;;;;5116384;28;20030;-79
2023/04/30 11:35:44;;;;;;;11.82;6.97;;;;;;;;;;5114905;28;20032;-80
2023/04/30 11:38:14;;;;;;;12.48;8.82;;;;;;;;;;5115583;28;20016;-80
2023/04/30 11:40:40;;;;;;;11.27;7.03;;;;;;;;;;5116094;28;20079;-79
2023/04/30 11:43:05;;;;;;;16.75;7.22;;;;;;;;;;5117345;28;20051;-80
2023/04/30 11:45:32;;;;;;;8.90;5.97;;;;;;;;;;5117279;28;20364;-78
2023/04/30 11:47:58;;;;;;;9.32;5.78;;;;;;;;;;5117089;28;20096;-79
2023/04/30 11:50:31;;;;;;;9.50;6.82;;;;;;;;;;5116525;28;20351;-81
2023/04/30 11:53:02;;;;;;;9.07;6.25;;;;;;;;;;5114617;28;20038;-79
2023/04/30 11:55:27;;;;;;;13.45;7.30;;;;;;;;;;5098485;28;20034;-80
2023/04/30 11:57:55;;;;;;;11.38;6.72;;;;;;;;;;5117017;28;20479;-80
2023/04/30 12:00:25;;;;;;;11.30;6.93;;;;;;;;;;5115197;28;20032;-79
2023/04/30 12:02:52;;;;;;;13.25;7.88;;;;;;;;;;5117226;28;20043;-79
2023/04/30 12:05:22;;;;;;;9.43;6.20;;;;;;;;;;5116214;28;20027;-77
2023/04/30 12:07:51;;;;;;;8.90;6.15;;;;;;;;;;5114705;28;20031;-79
2023/04/30 12:10:20;;;;;;;9.48;6.45;;;;;;;;;;5115103;28;20033;-78
2023/04/30 12:12:48;;;;;;;9.55;5.88;;;;;;;;;;5115211;28;20023;-81
2023/04/30 12:15:16;;;;;;;12.95;6.15;;;;;;;;;;5115419;28;20020;-79
2023/04/30 12:17:43;;;;;;;10.65;5.45;;;;;;;;;;5115991;28;20023;-79
2023/04/30 12:20:10;;;;;;;8.90;5.65;;;;;;;;;;5115103;27;20088;-77
2023/04/30 12:22:36;;;;;;;9.05;5.82;;;;;;;;;;5115249;28;20444;-79
2023/04/30 12:25:12;;;;;;;10.48;5.88;;;;;;;;;;5114365;28;20024;-78
2023/04/30 12:27:44;;;;;;;8.52;5.53;;;;;;;;;;5114737;28;20026;-78
2023/04/30 12:30:09;;;;;;;;;;;;;;;;;;5114789;28;20025;-80
2023/04/30 12:32:45;;;;;;;7.88;4.43;;;;;;;;;;5115531;28;19911;-78
2023/04/30 12:35:19;;;;;;;6.43;4.60;;;;;;;;;;5114848;28;20034;-80
2023/04/30 12:38:00;;;;;;;7.47;4.70;;;;;;;;;;5114487;28;20027;-80
2023/04/30 12:40:27;;;;;;;16.75;5.15;;;;;;;;;;5115661;28;20102;-80
2023/04/30 12:43:07;;;;;;;8.10;4.10;;;;;;;;;;5113928;28;20567;-79
2023/04/30 12:45:53;;;;;;;6.82;3.75;;;;;;;;;;5097187;28;20031;-79
2023/04/30 12:48:24;;;;;;;6.50;4.20;;;;;;;;;;5114297;28;20190;-79
2023/04/30 12:51:00;;;;;;;5.28;3.40;;;;;;;;;;5114896;28;20031;-80
2023/04/30 12:53:27;;;;;;;6.40;3.47;;;;;;;;;;5115097;28;20088;-81
2023/04/30 12:56:17;;;;;;;3.80;3.17;;;;;;;;;;5115527;28;20107;-79
2023/04/30 12:58:49;;;;;;;5.10;3.38;;;;;;;;;;5115640;28;20034;-80
2023/04/30 13:01:24;;;;;;;4.68;3.38;;;;;;;;;;5114844;28;20054;-80
2023/04/30 13:03:52;;;;;;;4.50;3.45;;;;;;;;;;5113593;28;20027;-78
2023/04/30 13:06:17;;;;;;;11.15;3.80;;;;;;;;;;5114414;28;20025;-80
2023/04/30 13:08:43;;;;;;;4.88;3.22;;;;;;;;;;5113669;28;20632;-79
2023/04/30 13:11:10;;;;;;;7.55;3.13;;;;;;;;;;5115361;28;20471;-80
2023/04/30 13:13:35;;;;;;;5.93;3.45;;;;;;;;;;5115156;28;20031;-79
2023/04/30 13:16:05;;;;;;;4.40;3.20;;;;;;;;;;5115326;28;20489;-80
2023/04/30 13:18:31;;;;;;;4.82;3.30;;;;;;;;;;5114820;28;20027;-79
2023/04/30 13:20:57;;;;;;;6.00;3.70;;;;;;;;;;5114445;28;20157;-78
2023/04/30 13:23:22;;;;;;;4.55;3.00;;;;;;;;;;5113449;28;20073;-80
2023/04/30 13:25:48;;;;;;;6.53;2.63;;;;;;;;;;5113331;28;20024;-77
2023/04/30 13:28:13;;;;;;;5.22;2.65;;;;;;;;;;5114611;28;20386;-80
2023/04/30 13:30:40;;;;;;;4.10;2.60;;;;;;;;;;5113127;28;20026;-80
2023/04/30 13:33:06;;;;;;;3.58;2.67;;;;;;;;;;5113301;28;20023;-78
2023/04/30 13:35:31;;;;;;;4.65;2.75;;;;;;;;;;5113229;28;20543;-81
2023/04/30 13:37:58;;;;;;;5.53;2.65;;;;;;;;;;5114777;28;20026;-78
2023/04/30 13:40:24;;;;;;;4.38;2.75;;;;;;;;;;5114312;28;20028;-79
2023/04/30 13:42:49;;;;;;;3.05;2.00;;;;;;;;;;5112915;28;20055;-79
2023/04/30 13:45:15;;;;;;;5.90;2.40;;;;;;;;;;5115385;28;20036;-79
2023/04/30 13:47:41;;;;;;;8.60;2.72;;;;;;;;;;5114108;28;20031;-79
2023/04/30 13:50:09;;;;;;;7.20;2.33;;;;;;;;;;5115016;28;20028;-79
2023/04/30 13:52:35;;;;;;;7.30;2.50;;;;;;;;;;5114792;28;20027;-79
2023/04/30 13:55:01;;;;;;;5.35;2.50;;;;;;;;;;5113127;28;20493;-80
2023/04/30 13:57:28;;;;;;;4.82;2.75;;;;;;;;;;5113327;28;20024;-79
2023/04/30 13:59:54;;;;;;;3.78;1.85;;;;;;;;;;5113480;28;20028;-81
2023/04/30 14:02:20;;;;;;;3.22;2.60;;;;;;;;;;5115165;28;20428;-80
2023/04/30 14:04:45;;;;;;;7.25;2.53;;;;;;;;;;5114608;28;20023;-80
2023/04/30 14:07:11;;;;;;;4.63;2.72;;;;;;;;;;5114416;28;20091;-80
2023/04/30 14:09:38;;;;;;;3.42;2.20;;;;;;;;;;5114718;28;20032;-82
2023/04/30 14:12:04;;;;;;;4.88;2.72;;;;;;;;;;5116063;28;20072;-81
2023/04/30 14:14:29;;;;;;;4.68;1.98;;;;;;;;;;5113446;28;20024;-81
2023/04/30 14:16:55;;;;;;;4.13;2.28;;;;;;;;;;5113791;28;20043;-81
2023/04/30 14:19:21;;;;;;;6.15;2.25;;;;;;;;;;5114433;28;20019;-81
2023/04/30 14:21:47;;;;;;;5.88;2.10;;;;;;;;;;5114409;28;20134;-80
2023/04/30 14:24:14;;;;;;;4.30;2.28;;;;;;;;;;5113728;28;20047;-80
2023/04/30 14:26:41;;;;;;;5.30;2.58;;;;;;;;;;5114406;28;20080;-82
2023/04/30 14:29:07;;;;;;;2.53;1.95;;;;;;;;;;5113657;28;20076;-81
2023/04/30 14:31:33;;;;;;;5.07;2.53;;;;;;;;;;5114211;28;20039;-81
2023/04/30 14:33:58;;;;;;;3.30;2.25;;;;;;;;;;5114143;28;20028;-81
2023/04/30 14:36:26;;;;;;;7.32;2.00;;;;;;;;;;5113131;28;20475;-80